createdAt,value
2019-03-21T00:00:00.411Z,7.70
2019-03-21T00:02:30.340Z,7.60
2019-03-21T00:05:00.348Z,7.30
2019-03-21T00:07:30.389Z,7.30
2019-03-21T00:10:32.108Z,7.30
2019-03-21T00:13:02.512Z,7.30
2019-03-21T00:15:48.629Z,7.20
2019-03-21T00:18:19.644Z,7.20
2019-03-21T00:20:49.651Z,6.90
2019-03-21T00:23:19.564Z,6.60
2019-03-21T00:25:49.836Z,6.70
2019-03-21T00:28:19.788Z,6.90
2019-03-21T00:30:49.580Z,6.90
2019-03-21T00:33:19.512Z,6.90
2019-03-21T00:35:49.429Z,6.60
2019-03-21T00:38:19.491Z,6.40
2019-03-21T00:40:49.744Z,6.40
2019-03-21T00:43:19.756Z,6.30
2019-03-21T00:45:49.670Z,6.20
2019-03-21T00:48:21.907Z,6.40
2019-03-21T00:50:51.861Z,6.00
2019-03-21T00:53:21.782Z,5.80
2019-03-21T00:55:56.372Z,5.90
2019-03-21T00:58:26.315Z,6.00
2019-03-21T01:01:03.602Z,6.10
2019-03-21T01:03:33.513Z,5.90
2019-03-21T01:06:03.627Z,6.00
2019-03-21T01:08:33.536Z,6.20
2019-03-21T01:11:03.649Z,6.00
2019-03-21T01:13:38.378Z,5.80
2019-03-21T01:16:08.588Z,5.60
2019-03-21T01:18:45.281Z,5.70
2019-03-21T01:21:15.390Z,5.80
2019-03-21T01:23:45.506Z,5.80
2019-03-21T01:26:18.660Z,5.80
2019-03-21T01:28:48.868Z,5.80
2019-03-21T01:31:18.784Z,5.90
2019-03-21T01:33:49.384Z,6.00
2019-03-21T01:36:22.443Z,5.80
2019-03-21T01:38:52.358Z,5.60
2019-03-21T01:41:22.466Z,5.50
2019-03-21T01:43:53.073Z,5.40
2019-03-21T01:46:27.708Z,5.40
2019-03-21T01:48:58.006Z,5.60
2019-03-21T01:51:27.921Z,5.80
2019-03-21T01:53:58.127Z,5.60
2019-03-21T01:56:30.596Z,5.80
2019-03-21T01:59:00.509Z,5.80
2019-03-21T02:01:30.819Z,5.90
2019-03-21T02:04:00.731Z,5.90
2019-03-21T02:06:31.822Z,5.90
2019-03-21T02:09:01.737Z,5.90
2019-03-21T02:11:31.649Z,5.70
2019-03-21T02:14:01.860Z,5.60
2019-03-21T02:16:31.770Z,5.40
2019-03-21T02:19:02.114Z,5.40
2019-03-21T02:21:32.093Z,5.50
2019-03-21T02:24:02.003Z,5.20
2019-03-21T02:26:32.113Z,5.00
2019-03-21T02:29:02.321Z,4.90
2019-03-21T02:31:32.437Z,5.00
2019-03-21T02:34:02.640Z,5.20
2019-03-21T02:36:32.555Z,5.30
2019-03-21T02:39:03.064Z,5.30
2019-03-21T02:41:33.172Z,5.20
2019-03-21T02:44:03.109Z,5.10
2019-03-21T02:46:33.190Z,5.10
2019-03-21T02:49:03.126Z,5.30
2019-03-21T02:51:33.024Z,5.30
2019-03-21T02:54:03.040Z,5.30
2019-03-21T02:56:32.945Z,5.00
2019-03-21T02:59:03.266Z,4.90
2019-03-21T03:01:33.164Z,5.00
2019-03-21T03:04:03.093Z,5.00
2019-03-21T03:06:32.992Z,4.80
2019-03-21T03:09:03.204Z,4.70
2019-03-21T03:11:33.414Z,4.70
2019-03-21T03:14:04.665Z,4.80
2019-03-21T03:16:34.711Z,4.90
2019-03-21T03:19:04.720Z,4.80
2019-03-21T03:21:34.637Z,4.90
2019-03-21T03:24:05.372Z,4.90
2019-03-21T03:26:35.347Z,5.10
2019-03-21T03:29:05.656Z,5.10
2019-03-21T03:31:35.565Z,4.90
2019-03-21T03:34:05.487Z,4.70
2019-03-21T03:36:35.982Z,4.80
2019-03-21T03:39:08.443Z,4.70
2019-03-21T03:41:38.954Z,4.80
2019-03-21T03:44:09.067Z,4.70
2019-03-21T03:46:38.988Z,4.70
2019-03-21T03:49:09.391Z,4.50
2019-03-21T03:51:39.300Z,4.30
2019-03-21T03:54:09.511Z,4.20
2019-03-21T03:56:39.614Z,4.10
2019-03-21T03:59:10.548Z,4.40
2019-03-21T04:01:40.675Z,4.30
2019-03-21T04:04:11.055Z,4.20
2019-03-21T04:06:40.939Z,4.20
2019-03-21T04:09:11.444Z,4.20
2019-03-21T04:11:41.847Z,4.10
2019-03-21T04:14:11.959Z,4.20
2019-03-21T04:16:41.883Z,4.20
2019-03-21T04:19:11.785Z,4.10
2019-03-21T04:21:41.701Z,4.20
2019-03-21T04:24:11.610Z,4.00
2019-03-21T04:26:41.821Z,3.90
2019-03-21T04:29:11.736Z,3.90
2019-03-21T04:31:41.845Z,3.80
2019-03-21T04:34:12.262Z,3.90
2019-03-21T04:36:42.165Z,4.10
2019-03-21T04:39:12.371Z,4.30
2019-03-21T04:41:45.661Z,4.20
2019-03-21T04:44:15.642Z,4.30
2019-03-21T04:46:45.552Z,4.40
2019-03-21T04:49:15.465Z,4.20
2019-03-21T04:51:45.974Z,4.30
2019-03-21T04:54:15.887Z,4.20
2019-03-21T04:56:46.091Z,4.00
2019-03-21T04:59:16.007Z,4.00
2019-03-21T05:01:45.919Z,4.00
2019-03-21T05:04:15.831Z,3.60
2019-03-21T05:06:45.940Z,3.40
2019-03-21T05:09:18.214Z,3.30
2019-03-21T05:11:48.131Z,3.30
2019-03-21T05:14:18.239Z,3.40
2019-03-21T05:16:48.544Z,3.60
2019-03-21T05:19:18.459Z,3.50
2019-03-21T05:21:48.375Z,3.40
2019-03-21T05:24:18.483Z,3.50
2019-03-21T05:26:48.396Z,3.50
2019-03-21T05:29:18.314Z,3.70
2019-03-21T05:31:48.323Z,3.70
2019-03-21T05:34:18.236Z,3.90
2019-03-21T05:36:50.341Z,3.90
2019-03-21T05:39:19.831Z,3.90
2019-03-21T05:41:49.943Z,3.80
2019-03-21T05:44:30.960Z,3.40
2019-03-21T05:47:01.072Z,3.30
2019-03-21T05:49:31.378Z,3.50
2019-03-21T05:52:01.401Z,3.50
2019-03-21T05:54:31.599Z,3.50
2019-03-21T05:57:01.514Z,3.30
2019-03-21T05:59:31.426Z,3.30
2019-03-21T06:02:01.341Z,3.40
2019-03-21T06:04:31.253Z,3.30
2019-03-21T06:07:17.584Z,3.30
2019-03-21T06:09:47.695Z,3.20
2019-03-21T06:12:17.804Z,3.40
2019-03-21T06:14:58.141Z,3.60
2019-03-21T06:17:28.739Z,3.60
2019-03-21T06:20:20.969Z,3.80
2019-03-21T06:23:22.242Z,3.70
2019-03-21T06:26:05.724Z,3.60
2019-03-21T06:28:35.634Z,3.60
2019-03-21T06:31:05.943Z,3.70
2019-03-21T06:33:35.855Z,3.80
2019-03-21T06:36:06.151Z,3.70
2019-03-21T06:38:36.073Z,3.70
2019-03-21T06:41:05.988Z,3.70
2019-03-21T06:43:36.001Z,3.80
2019-03-21T06:46:05.913Z,3.90
2019-03-21T06:48:36.186Z,4.10
2019-03-21T06:51:07.484Z,4.20
2019-03-21T06:53:37.424Z,4.30
2019-03-21T06:56:07.631Z,4.20
2019-03-21T06:58:37.546Z,4.30
2019-03-21T07:01:07.466Z,4.20
2019-03-21T07:03:37.372Z,4.20
2019-03-21T07:06:07.529Z,4.40
2019-03-21T07:08:37.500Z,4.50
2019-03-21T07:11:07.412Z,4.60
2019-03-21T07:13:37.517Z,4.80
2019-03-21T07:16:09.395Z,4.60
2019-03-21T07:18:39.408Z,4.60
2019-03-21T07:21:09.366Z,4.80
2019-03-21T07:23:39.334Z,4.90
2019-03-21T07:26:09.248Z,4.90
2019-03-21T07:28:39.161Z,4.80
2019-03-21T07:31:11.299Z,4.80
2019-03-21T07:33:40.875Z,5.00
2019-03-21T07:36:10.768Z,5.10
2019-03-21T07:38:40.683Z,5.30
2019-03-21T07:41:10.794Z,5.30
2019-03-21T07:43:40.708Z,5.40
2019-03-21T07:46:10.786Z,5.50
2019-03-21T07:48:40.729Z,5.60
2019-03-21T07:51:11.234Z,5.70
2019-03-21T07:53:41.442Z,5.70
2019-03-21T07:56:11.649Z,5.70
2019-03-21T07:58:41.856Z,5.70
2019-03-21T08:01:11.773Z,5.80
2019-03-21T08:03:41.685Z,6.00
2019-03-21T08:06:11.696Z,6.10
2019-03-21T08:08:41.609Z,6.10
2019-03-21T08:11:11.620Z,6.20
2019-03-21T08:13:41.537Z,6.20
2019-03-21T08:16:11.448Z,6.30
2019-03-21T08:18:41.494Z,6.50
2019-03-21T08:21:11.471Z,6.60
2019-03-21T08:23:41.891Z,6.60
2019-03-21T08:26:11.984Z,6.70
2019-03-21T08:28:41.900Z,6.70
2019-03-21T08:31:14.761Z,6.80
2019-03-21T08:33:45.369Z,6.80
2019-03-21T08:36:15.379Z,7.00
2019-03-21T08:38:45.497Z,7.10
2019-03-21T08:41:15.794Z,7.30
2019-03-21T08:43:45.591Z,7.30
2019-03-21T08:46:16.504Z,7.40
2019-03-21T08:48:46.430Z,7.50
2019-03-21T08:51:16.920Z,7.60
2019-03-21T08:53:47.037Z,7.60
2019-03-21T08:56:17.397Z,7.60
2019-03-21T08:58:47.840Z,7.60
2019-03-21T09:01:17.758Z,7.70
2019-03-21T09:03:47.863Z,7.70
2019-03-21T09:06:17.786Z,8.00
2019-03-21T09:08:47.574Z,8.20
2019-03-21T09:11:17.900Z,8.20
2019-03-21T09:13:47.814Z,8.20
2019-03-21T09:16:18.022Z,8.20
2019-03-21T09:18:48.034Z,8.50
2019-03-21T09:21:20.019Z,9.00
2019-03-21T09:23:49.738Z,10.50
2019-03-21T09:26:19.647Z,11.00
2019-03-21T09:28:49.441Z,12.00
2019-03-21T09:31:19.573Z,11.60
2019-03-21T09:33:50.565Z,11.50
2019-03-21T09:36:20.564Z,11.80
2019-03-21T09:38:50.985Z,11.30
2019-03-21T09:41:20.903Z,11.00
2019-03-21T09:43:50.813Z,12.30
2019-03-21T09:46:20.914Z,13.00
2019-03-21T09:48:50.829Z,13.00
2019-03-21T09:51:30.530Z,12.40
2019-03-21T09:53:52.429Z,12.40
2019-03-21T09:56:24.064Z,12.90
2019-03-21T09:58:54.220Z,13.10
2019-03-21T10:01:24.132Z,13.50
2019-03-21T10:03:54.149Z,13.70
2019-03-21T10:06:24.158Z,13.30
2019-03-21T10:08:54.069Z,13.90
2019-03-21T10:11:24.277Z,15.00
2019-03-21T10:13:54.386Z,15.60
2019-03-21T10:16:24.299Z,14.40
2019-03-21T10:18:54.214Z,14.40
2019-03-21T10:21:24.831Z,14.00
2019-03-21T10:23:56.112Z,14.00
2019-03-21T10:26:26.020Z,14.40
2019-03-21T10:28:56.889Z,16.00
2019-03-21T10:31:26.927Z,15.70
2019-03-21T10:33:56.843Z,16.80
2019-03-21T10:36:26.753Z,16.40
2019-03-21T10:38:57.876Z,15.30
2019-03-21T10:41:28.743Z,15.50
2019-03-21T10:43:59.919Z,16.40
2019-03-21T10:46:30.143Z,15.50
2019-03-21T10:49:00.069Z,16.80
2019-03-21T10:51:30.067Z,16.10
2019-03-21T10:53:59.982Z,16.90
2019-03-21T10:56:29.894Z,18.10
2019-03-21T10:58:59.808Z,18.60
2019-03-21T11:01:29.929Z,19.00
2019-03-21T11:03:59.836Z,18.60
2019-03-21T11:06:29.744Z,18.00
2019-03-21T11:08:59.951Z,17.80
2019-03-21T11:11:32.381Z,17.30
2019-03-21T11:14:02.436Z,17.20
2019-03-21T11:16:32.351Z,18.20
2019-03-21T11:19:02.362Z,18.60
2019-03-21T11:21:32.275Z,17.80
2019-03-21T11:24:02.188Z,19.00
2019-03-21T11:26:32.196Z,17.70
2019-03-21T11:29:02.118Z,18.50
2019-03-21T11:31:32.219Z,17.70
2019-03-21T11:34:02.332Z,18.10
2019-03-21T11:36:38.276Z,18.80
2019-03-21T11:39:05.695Z,18.60
2019-03-21T11:41:35.711Z,18.70
2019-03-21T11:44:06.014Z,19.50
2019-03-21T11:46:35.933Z,19.00
2019-03-21T11:49:05.947Z,19.50
2019-03-21T11:51:35.862Z,19.50
2019-03-21T11:54:05.864Z,19.50
2019-03-21T11:56:35.784Z,20.40
2019-03-21T11:59:06.085Z,20.70
2019-03-21T12:01:36.199Z,20.00
2019-03-21T12:04:06.500Z,20.30
2019-03-21T12:06:36.413Z,20.30
2019-03-21T12:09:08.590Z,18.90
2019-03-21T12:11:39.093Z,19.60
2019-03-21T12:14:09.103Z,19.00
2019-03-21T12:16:39.606Z,18.60
2019-03-21T12:19:09.528Z,19.70
2019-03-21T12:21:39.440Z,20.00
2019-03-21T12:24:09.349Z,20.70
2019-03-21T12:26:39.262Z,20.60
2019-03-21T12:29:09.174Z,19.80
2019-03-21T12:31:39.087Z,18.90
2019-03-21T12:34:09.001Z,18.50
2019-03-21T12:36:38.914Z,19.50
2019-03-21T12:39:09.943Z,20.60
2019-03-21T12:41:39.921Z,20.70
2019-03-21T12:44:10.036Z,20.40
2019-03-21T12:46:40.141Z,20.70
2019-03-21T12:49:10.054Z,20.70
2019-03-21T12:51:41.032Z,20.10
2019-03-21T12:54:11.487Z,20.70
2019-03-21T12:56:41.466Z,20.30
2019-03-21T12:59:11.378Z,19.30
2019-03-21T13:01:41.292Z,19.20
2019-03-21T13:04:11.203Z,18.90
2019-03-21T13:06:41.216Z,18.80
2019-03-21T13:09:11.129Z,18.90
2019-03-21T13:11:41.242Z,19.30
2019-03-21T13:14:11.449Z,19.10
2019-03-21T13:16:41.558Z,20.10
2019-03-21T13:19:11.569Z,20.40
2019-03-21T13:21:41.680Z,21.00
2019-03-21T13:24:11.593Z,21.10
2019-03-21T13:26:41.703Z,19.90
2019-03-21T13:29:11.617Z,20.20
2019-03-21T13:31:41.533Z,20.40
2019-03-21T13:34:11.450Z,20.30
2019-03-21T13:36:41.554Z,19.30
2019-03-21T13:39:11.570Z,18.80
2019-03-21T13:41:41.482Z,19.20
2019-03-21T13:44:11.687Z,18.60
2019-03-21T13:46:41.599Z,19.90
2019-03-21T13:49:11.514Z,19.30
2019-03-21T13:51:42.017Z,19.40
2019-03-21T13:54:11.931Z,18.80
2019-03-21T13:56:41.844Z,19.10
2019-03-21T13:59:11.757Z,19.70
2019-03-21T14:01:41.669Z,20.10
2019-03-21T14:04:11.585Z,19.70
2019-03-21T14:06:41.692Z,19.50
2019-03-21T14:09:11.608Z,20.20
2019-03-21T14:11:41.521Z,20.10
2019-03-21T14:14:11.433Z,19.70
2019-03-21T14:16:41.369Z,19.50
2019-03-21T14:19:11.456Z,19.50
2019-03-21T14:21:41.253Z,19.60
2019-03-21T14:24:11.382Z,19.40
2019-03-21T14:26:41.299Z,18.60
2019-03-21T14:29:12.831Z,18.70
2019-03-21T14:31:43.588Z,19.30
2019-03-21T14:34:13.496Z,19.30
2019-03-21T14:36:43.898Z,19.60
2019-03-21T14:39:13.811Z,19.20
2019-03-21T14:41:43.724Z,18.80
2019-03-21T14:44:13.845Z,18.90
2019-03-21T14:46:43.749Z,19.10
2019-03-21T14:49:13.666Z,19.10
2019-03-21T14:51:43.573Z,19.00
2019-03-21T14:54:13.785Z,18.90
2019-03-21T14:56:43.697Z,19.40
2019-03-21T14:59:13.611Z,19.80
2019-03-21T15:01:43.523Z,19.60
2019-03-21T15:04:13.884Z,19.70
2019-03-21T15:06:44.233Z,18.90
2019-03-21T15:09:14.152Z,19.20
2019-03-21T15:11:44.164Z,19.10
2019-03-21T15:14:14.215Z,19.20
2019-03-21T15:16:44.184Z,19.00
2019-03-21T15:19:14.296Z,19.00
2019-03-21T15:21:44.220Z,18.80
2019-03-21T15:24:14.219Z,18.50
2019-03-21T15:26:44.130Z,18.10
2019-03-21T15:29:14.241Z,18.00
2019-03-21T15:31:44.155Z,18.20
2019-03-21T15:34:14.167Z,18.00
2019-03-21T15:36:44.205Z,18.00
2019-03-21T15:39:14.191Z,18.00
2019-03-21T15:41:44.111Z,18.20
2019-03-21T15:44:14.016Z,18.00
2019-03-21T15:46:44.028Z,17.90
2019-03-21T15:49:13.945Z,17.90
2019-03-21T15:51:43.855Z,17.80
2019-03-21T15:54:13.768Z,17.80
2019-03-21T15:56:43.684Z,17.90
2019-03-21T15:59:13.602Z,17.90
2019-03-21T16:01:43.612Z,17.90
2019-03-21T16:04:13.619Z,17.80
2019-03-21T16:06:43.536Z,17.70
2019-03-21T16:09:13.839Z,17.90
2019-03-21T16:11:43.751Z,17.90
2019-03-21T16:14:13.664Z,17.80
2019-03-21T16:16:43.462Z,17.90
2019-03-21T16:19:13.687Z,17.80
2019-03-21T16:21:43.602Z,17.80
2019-03-21T16:24:13.519Z,18.00
2019-03-21T16:26:43.626Z,18.00
2019-03-21T16:29:13.537Z,17.90
2019-03-21T16:31:44.270Z,17.80
2019-03-21T16:34:15.428Z,17.80
2019-03-21T16:36:45.441Z,17.80
2019-03-21T16:39:15.753Z,17.80
2019-03-21T16:41:47.081Z,17.70
2019-03-21T16:44:18.667Z,17.70
2019-03-21T16:46:48.634Z,17.70
2019-03-21T16:49:18.545Z,17.60
2019-03-21T16:51:48.461Z,17.50
2019-03-21T16:54:18.738Z,17.50
2019-03-21T16:56:49.401Z,17.60
2019-03-21T16:59:19.378Z,17.40
2019-03-21T17:01:49.391Z,17.40
2019-03-21T17:04:19.304Z,17.10
2019-03-21T17:06:49.322Z,17.00
2019-03-21T17:09:19.229Z,16.90
2019-03-21T17:11:49.342Z,16.90
2019-03-21T17:14:19.469Z,16.80
2019-03-21T17:16:49.544Z,16.80
2019-03-21T17:19:19.480Z,16.80
2019-03-21T17:21:49.400Z,16.70
2019-03-21T17:24:28.635Z,16.70
2019-03-21T17:26:51.278Z,16.60
2019-03-21T17:29:21.193Z,16.50
2019-03-21T17:31:51.106Z,16.40
2019-03-21T17:34:21.020Z,16.40
2019-03-21T17:36:50.932Z,16.20
2019-03-21T17:39:21.140Z,16.20
2019-03-21T17:41:51.056Z,16.20
2019-03-21T17:44:21.265Z,16.10
2019-03-21T17:46:51.368Z,16.10
2019-03-21T17:49:21.580Z,15.80
2019-03-21T17:51:51.600Z,15.60
2019-03-21T17:54:21.800Z,15.40
2019-03-21T17:56:51.714Z,15.50
2019-03-21T17:59:21.627Z,15.40
2019-03-21T18:01:52.625Z,15.20
2019-03-21T18:04:22.830Z,15.00
2019-03-21T18:06:52.843Z,14.90
2019-03-21T18:09:22.754Z,14.70
2019-03-21T18:11:52.688Z,14.70
2019-03-21T18:14:22.894Z,14.70
2019-03-21T18:16:52.886Z,14.50
2019-03-21T18:19:22.803Z,14.50
2019-03-21T18:21:53.006Z,14.40
2019-03-21T18:24:22.925Z,14.30
2019-03-21T18:26:52.933Z,14.30
2019-03-21T18:29:22.847Z,14.10
2019-03-21T18:31:52.762Z,14.10
2019-03-21T18:34:22.868Z,14.20
2019-03-21T18:36:52.783Z,14.10
2019-03-21T18:39:22.794Z,14.00
2019-03-21T18:41:52.709Z,14.00
2019-03-21T18:44:22.819Z,14.00
2019-03-21T18:46:52.830Z,13.90
2019-03-21T18:49:22.844Z,13.80
2019-03-21T18:51:52.756Z,13.60
2019-03-21T18:54:22.783Z,13.60
2019-03-21T18:56:53.076Z,13.60
2019-03-21T18:59:24.081Z,13.50
2019-03-21T19:01:58.666Z,13.40
2019-03-21T19:04:28.089Z,13.30
2019-03-21T19:06:58.654Z,13.30
2019-03-21T19:09:28.635Z,13.30
2019-03-21T19:11:58.549Z,13.20
2019-03-21T19:14:28.463Z,12.90
2019-03-21T19:16:58.381Z,12.60
2019-03-21T19:19:28.785Z,12.60
2019-03-21T19:21:59.089Z,12.70
2019-03-21T19:24:29.005Z,12.60
2019-03-21T19:26:59.505Z,12.70
2019-03-21T19:29:29.419Z,12.70
2019-03-21T19:31:59.330Z,12.50
2019-03-21T19:34:29.345Z,12.50
2019-03-21T19:36:59.675Z,12.40
2019-03-21T19:39:29.663Z,12.40
2019-03-21T19:41:59.459Z,12.30
2019-03-21T19:44:29.488Z,12.30
2019-03-21T19:47:01.333Z,12.30
2019-03-21T19:49:30.987Z,12.20
2019-03-21T19:52:00.903Z,12.30
2019-03-21T19:54:30.814Z,12.10
2019-03-21T19:57:01.796Z,11.90
2019-03-21T19:59:33.395Z,11.70
2019-03-21T20:02:03.411Z,11.60
2019-03-21T20:04:33.516Z,11.50
2019-03-21T20:07:04.497Z,11.30
2019-03-21T20:09:35.117Z,11.50
2019-03-21T20:12:05.089Z,11.50
2019-03-21T20:14:35.133Z,11.70
2019-03-21T20:17:05.344Z,11.60
2019-03-21T20:19:35.256Z,11.40
2019-03-21T20:22:05.176Z,11.00
2019-03-21T20:24:35.283Z,10.90
2019-03-21T20:27:05.488Z,10.70
2019-03-21T20:29:35.403Z,11.00
2019-03-21T20:32:05.510Z,11.20
2019-03-21T20:34:35.425Z,11.30
2019-03-21T20:37:05.684Z,11.20
2019-03-21T20:39:35.660Z,11.20
2019-03-21T20:42:06.157Z,11.30
2019-03-21T20:44:35.978Z,11.10
2019-03-21T20:47:05.875Z,11.10
2019-03-21T20:49:35.986Z,11.20
2019-03-21T20:52:05.900Z,11.10
2019-03-21T20:54:36.010Z,10.70
2019-03-21T20:57:05.922Z,10.40
2019-03-21T20:59:36.134Z,10.30
2019-03-21T21:02:06.036Z,10.40
2019-03-21T21:04:36.109Z,10.50
2019-03-21T21:07:06.071Z,10.50
2019-03-21T21:09:37.238Z,10.30
2019-03-21T21:12:07.172Z,10.50
2019-03-21T21:14:37.283Z,10.30
2019-03-21T21:17:07.198Z,10.20
2019-03-21T21:19:37.112Z,10.10
2019-03-21T21:22:07.022Z,10.00
2019-03-21T21:24:37.228Z,9.90
2019-03-21T21:27:07.141Z,9.90
2019-03-21T21:29:37.547Z,9.80
2019-03-21T21:32:07.473Z,10.10
2019-03-21T21:34:37.621Z,9.90
2019-03-21T21:37:08.567Z,9.80
2019-03-21T21:39:38.476Z,9.60
2019-03-21T21:42:08.490Z,9.50
2019-03-21T21:44:38.905Z,9.30
2019-03-21T21:47:09.802Z,9.40
2019-03-21T21:49:40.018Z,9.50
2019-03-21T21:52:10.207Z,9.30
2019-03-21T21:54:40.467Z,9.20
2019-03-21T21:57:10.428Z,9.30
2019-03-21T21:59:40.341Z,9.20
2019-03-21T22:02:10.462Z,9.10
2019-03-21T22:04:40.366Z,9.20
2019-03-21T22:07:10.768Z,9.50
2019-03-21T22:09:40.780Z,9.40
2019-03-21T22:12:10.700Z,9.10
2019-03-21T22:14:40.612Z,9.10
2019-03-21T22:17:10.719Z,8.80
2019-03-21T22:19:41.673Z,8.70
2019-03-21T22:22:12.499Z,8.60
2019-03-21T22:24:43.255Z,8.50
2019-03-21T22:27:13.516Z,8.70
2019-03-21T22:29:43.528Z,8.50
2019-03-21T22:32:13.440Z,8.60
2019-03-21T22:34:43.359Z,8.80
2019-03-21T22:37:13.464Z,8.60
2019-03-21T22:39:46.150Z,8.70
2019-03-21T22:42:16.534Z,8.50
2019-03-21T22:44:46.890Z,8.50
2019-03-21T22:47:17.164Z,8.40
2019-03-21T22:49:47.358Z,8.30
2019-03-21T22:52:17.272Z,8.70
2019-03-21T22:54:47.183Z,8.80
2019-03-21T22:57:17.098Z,9.00
2019-03-21T22:59:47.009Z,8.90
2019-03-21T23:02:18.442Z,8.60
2019-03-21T23:04:49.677Z,8.70
2019-03-21T23:07:19.605Z,8.30
2019-03-21T23:09:49.965Z,8.40
2019-03-21T23:12:20.021Z,8.40
2019-03-21T23:14:50.546Z,8.40
2019-03-21T23:17:21.131Z,8.40
2019-03-21T23:19:51.473Z,8.40
2019-03-21T23:22:22.134Z,8.40
2019-03-21T23:24:52.239Z,8.10
2019-03-21T23:27:22.349Z,8.00
2019-03-21T23:29:52.807Z,7.90
2019-03-21T23:32:23.457Z,8.00
2019-03-21T23:34:53.976Z,8.10
2019-03-21T23:37:23.869Z,8.30
2019-03-21T23:39:54.200Z,8.30
2019-03-21T23:42:24.192Z,8.20
2019-03-21T23:44:54.201Z,8.20
2019-03-21T23:47:24.116Z,8.20
2019-03-21T23:49:54.123Z,8.30
2019-03-21T23:52:24.042Z,8.30
2019-03-21T23:54:53.952Z,8.20
2019-03-21T23:57:23.866Z,8.10
2019-03-21T23:59:54.269Z,8.00
